Date,TemperatureHighF,TemperatureAvgF,TemperatureLowF,DewpointHighF,DewpointAvgF,DewpointLowF,HumidityHigh,HumidityAvg,HumidityLow,PressureMaxIn,PressureMinIn,WindSpeedMaxMPH,WindSpeedAvgMPH,GustSpeedMaxMPH,PrecipitationSumIn
2013-1-1,17,9,2,-100,-100,-100,0,0,100,30.24,30.05,30,24,0,0.00
2013-1-2,24,21,19,-100,-100,-100,0,0,100,30.04,30.01,22,8,0,0.00
2013-1-3,27,24,19,-100,-100,-100,0,0,100,30.02,29.97,38,26,0,0.00
2013-1-4,32,29,24,-100,-100,-100,0,0,100,30.16,29.78,70,38,0,0.00
2013-1-5,35,29,26,-100,-100,-100,0,0,100,30.26,30.00,34,22,0,0.00
2013-1-6,37,32,25,-100,-100,-100,0,0,100,30.25,29.89,45,30,0,0.00
2013-1-7,38,33,26,-100,-100,-100,0,0,100,30.25,29.78,52,31,0,0.00
2013-1-8,35,34,32,-100,-100,-100,0,0,100,30.02,29.78,29,19,0,0.00
2013-1-9,35,32,31,-100,-100,-100,0,0,100,29.78,29.78,34,27,0,0.00
2013-1-11,44,41,36,-100,-100,-100,0,0,100,29.81,29.65,40,30,0,0.00
2013-1-12,48,45,43,-100,-100,-100,0,0,100,29.94,29.65,40,25,0,0.00
2013-1-13,33,27,23,-100,-100,-100,0,0,100,30.00,29.94,36,28,0,0.00
2013-1-14,24,22,21,-100,-100,-100,0,0,100,30.32,30.22,47,38,0,0.00
2013-1-15,28,24,16,-100,-100,-100,0,0,100,30.18,29.90,55,45,0,0.00
2013-1-16,29,27,26,-100,-100,-100,0,0,100,29.65,29.56,18,16,0,0.00
2013-3-24,30,29,28,-100,-100,-100,0,0,100,30.16,30.07,25,16,0,0.00
2013-3-25,34,30,27,-100,-100,-100,0,0,100,30.10,29.97,36,32,0,0.00
2013-3-26,36,35,33,-100,-100,-100,0,0,100,30.07,30.01,24,19,0,0.00
2013-3-27,37,36,35,-100,-100,-100,0,0,100,30.20,30.13,16,15,0,0.00
2013-3-28,37,36,34,-100,-100,-100,0,0,100,30.25,30.04,23,20,0,0.00
2013-3-29,35,34,33,-100,-100,-100,0,0,100,30.26,30.23,30,21,0,0.00
2013-3-30,37,35,33,-100,-100,-100,0,0,100,29.94,29.74,40,25,0,0.00
2013-3-31,36,34,31,-100,-100,-100,0,0,100,29.73,29.66,40,30,0,0.00
2013-4-1,27,23,17,-100,-100,-100,0,0,100,30.14,30.04,36,24,0,0.00
2013-4-2,23,22,22,-100,-100,-100,0,0,100,30.17,30.09,37,29,0,0.00
2013-4-3,31,26,21,-100,-100,-100,0,0,100,30.41,30.33,21,18,0,0.00
2013-4-4,36,36,35,-100,-100,-100,0,0,100,30.35,30.25,32,29,0,0.00
2013-4-5,45,35,30,-100,-100,-100,0,0,100,30.26,30.00,32,20,0,0.00
2013-4-6,35,32,29,-100,-100,-100,0,0,100,29.92,29.73,30,26,0,0.00
2013-4-7,33,32,32,-100,-100,-100,0,0,100,29.94,29.60,25,17,0,0.00
2013-4-8,34,33,32,-100,-100,-100,0,0,100,29.96,29.91,22,19,0,0.00
2013-4-9,36,36,35,-100,-100,-100,0,0,100,30.11,30.03,14,10,0,0.00
2013-4-10,37,37,37,-100,-100,-100,0,0,100,29.94,29.94,29,29,0,0.00
2013-4-11,37,36,36,-100,-100,-100,0,0,100,29.96,29.94,29,29,0,0.00
2013-4-12,40,36,35,-100,-100,-100,0,0,100,29.71,29.65,51,41,0,0.00
2013-4-13,41,40,39,-100,-100,-100,0,0,100,29.86,29.85,34,33,0,0.00
2013-4-14,35,32,31,-100,-100,-100,0,0,100,29.98,29.95,32,26,0,0.00
2013-4-15,32,32,32,-100,-100,-100,0,0,100,29.89,29.89,46,46,0,0.00
2013-4-16,39,37,34,-100,-100,-100,0,0,100,30.37,29.86,24,4,0,0.00
2013-4-17,38,36,34,-100,-100,-100,0,0,100,30.45,30.33,31,26,0,0.00
2013-4-18,40,38,36,-100,-100,-100,0,0,100,30.05,29.59,43,22,0,0.00
2013-4-19,42,42,42,-100,-100,-100,0,0,100,29.79,29.79,46,46,0,0.00
2013-4-20,39,37,34,-100,-100,-100,0,0,100,30.44,29.86,40,33,0,0.00
2013-4-22,43,40,36,-100,-100,-100,0,0,100,30.50,30.31,25,18,0,0.00
2013-4-23,36,24,36,-100,-100,-100,0,0,100,30.14,30.14,14,14,0,0.00
2013-4-24,36,36,36,-100,-100,-100,0,0,100,29.91,29.91,6,6,0,0.00
2013-4-25,33,32,31,-100,-100,-100,0,0,100,30.05,29.94,25,17,0,0.00
2013-4-27,60,60,60,-100,-100,-100,0,0,100,30.41,30.41,0,0,0,0.00
2013-4-29,49,44,41,-100,-100,-100,0,0,100,29.80,28.80,18,18,0,0.00
2013-4-30,36,36,36,-100,-100,-100,0,0,100,29.60,29.60,18,18,0,0.00
2013-5-1,42,32,39,-100,-100,-100,0,0,100,30.26,29.82,28,17,0,0.00
2013-5-3,63,63,63,-100,-100,-100,0,0,100,0.00,40.00,15,15,0,0.00
2013-5-4,63,58,56,-100,-100,-100,0,0,100,30.22,30.12,23,16,0,0.00
2013-5-5,58,42,37,-100,-100,-100,0,0,100,30.22,30.14,46,12,0,0.00
2013-5-6,36,27,32,-100,-100,-100,0,0,100,30.22,30.12,17,12,0,0.00
2013-5-7,41,39,37,-100,-100,-100,0,0,100,30.13,30.06,16,12,0,0.00
2013-5-8,51,48,46,-100,-100,-100,0,0,100,30.05,30.04,18,11,0,0.00
2013-5-9,61,60,57,-100,-100,-100,0,0,100,30.02,29.97,18,12,0,0.00
2013-5-10,69,58,39,-100,-100,-100,0,0,100,29.97,29.79,44,16,0,0.00
2013-5-11,38,33,33,-100,-100,-100,0,0,100,29.85,29.70,34,27,0,0.00
2013-5-12,36,32,29,-100,-100,-100,0,0,100,29.96,29.62,54,41,0,0.00
2013-5-13,42,37,36,-100,-100,-100,0,0,100,30.10,29.81,30,19,0,0.00
2013-5-14,41,39,38,-100,-100,-100,0,0,100,29.52,29.48,21,18,0,0.00
2013-5-15,57,47,42,-100,-100,-100,0,0,100,29.90,29.60,38,25,0,0.00
2013-5-16,50,42,44,-100,-100,-100,0,0,100,30.06,29.76,26,14,0,0.00
2013-5-17,53,51,49,-100,-100,-100,0,0,100,30.03,30.03,6,5,0,0.00
2013-5-18,65,56,49,-100,-100,-100,0,0,100,30.11,30.01,18,16,0,0.00
2013-5-19,46,43,42,-100,-100,-100,0,0,100,30.10,29.88,29,18,0,0.00
2013-5-20,44,41,39,-100,-100,-100,0,0,100,29.92,29.65,40,28,0,0.00
2013-5-21,40,37,39,40,-90,-100,0,0,100,29.80,29.70,34,21,0,0.00
2013-5-22,41,39,38,-100,-100,-100,0,0,100,29.86,29.72,26,19,0,0.00
2013-5-23,41,38,36,-100,-100,-100,0,0,100,30.37,30.34,23,13,0,0.00
2013-5-24,46,34,37,-100,-100,-100,0,0,100,30.43,30.34,20,13,0,0.00
2013-5-25,58,51,40,-100,-100,-100,0,0,100,30.44,30.33,17,12,0,0.00
2013-5-26,58,54,49,-100,-100,-100,0,0,100,30.35,30.30,13,6,0,0.00
2013-5-27,59,51,43,-100,-100,-100,0,0,100,30.27,30.14,21,11,0,0.00
2013-5-28,48,42,38,-100,-100,-100,0,0,100,30.04,29.79,18,15,0,0.00
2013-5-29,47,44,43,-100,-100,-100,0,0,100,29.85,29.81,23,8,0,0.00
2013-5-30,77,61,44,-100,-100,-100,0,0,100,29.94,29.82,26,16,0,0.00
2013-5-31,62,62,62,-100,-100,-100,0,0,100,30.00,30.00,20,20,0,0.00
2013-6-1,67,64,61,-100,-100,-100,0,0,100,30.00,29.82,23,21,0,0.00
2013-6-2,67,57,50,-100,-100,-100,0,0,100,30.81,29.72,26,18,0,0.00
2013-6-3,42,42,42,-100,-100,-100,0,0,100,30.12,30.01,18,14,0,0.00
2013-6-4,43,42,41,-100,-100,-100,0,0,100,30.20,30.15,15,4,0,0.00
2013-6-5,55,49,43,-100,-100,-100,0,0,100,30.21,30.19,20,11,0,0.00
2013-6-6,47,47,47,-100,-100,-100,0,0,100,29.97,29.97,13,13,0,0.00
2013-6-7,51,49,47,-100,-100,-100,0,0,100,29.97,29.95,23,15,0,0.00
2013-6-8,51,50,48,-100,-100,-100,0,0,100,30.04,29.95,23,12,0,0.00
2013-6-11,41,40,40,-100,-100,-100,0,0,100,29.87,29.87,3,3,0,0.00
2013-6-12,71,70,67,-100,-100,-100,0,0,100,29.95,29.83,16,9,0,0.00
2013-6-14,63,63,63,-100,-100,-100,0,0,100,30.11,30.09,21,21,0,0.00
2013-6-15,62,50,49,-100,-100,-100,0,0,100,30.09,29.99,9,6,0,0.00
2013-6-28,48,48,48,-100,-100,-100,0,0,100,29.85,29.85,8,8,0,0.00
2013-7-1,67,67,67,-100,-100,-100,0,0,100,30.06,30.06,23,23,0,0.00
2013-7-2,67,64,60,-100,-100,-100,0,0,100,30.17,30.06,23,21,0,0.00
2013-7-3,50,41,42,-100,-100,-100,0,0,100,30.15,30.00,12,11,0,0.00
2013-7-4,62,50,46,-100,-100,-100,0,0,100,30.01,29.99,17,11,0,0.00
2013-7-5,65,60,51,-100,-100,-100,0,0,100,29.99,29.91,23,20,0,0.00
2013-7-6,70,67,64,-100,-100,-100,0,0,100,30.18,30.00,23,15,0,0.00
2013-7-7,72,72,70,-100,-100,-100,0,0,100,30.06,30.02,17,15,0,0.00
2013-7-8,68,44,65,-100,-100,-100,0,0,100,30.01,29.98,12,10,0,0.00
2013-7-9,71,62,55,-100,-100,-100,0,0,100,30.00,29.70,23,8,0,0.00
2013-7-10,56,50,45,-100,-100,-100,0,0,100,29.95,29.70,29,22,0,0.00
2013-7-11,58,52,46,-100,-100,-100,0,0,100,30.13,30.04,15,6,0,0.00
2013-7-12,66,66,66,-100,-100,-100,0,0,100,30.28,30.28,17,17,0,0.00
2013-7-13,73,73,73,-100,-100,-100,0,0,100,30.23,30.23,12,12,0,0.00
2013-7-14,77,74,72,-100,-100,-100,0,0,100,30.34,30.30,14,9,0,0.00
2013-7-15,73,73,72,-100,-100,-100,0,0,100,30.35,30.34,12,3,0,0.00
2013-7-16,74,67,63,-100,-100,-100,0,0,100,30.26,30.10,29,13,0,0.00
2013-7-17,70,60,54,-100,-100,-100,0,0,100,30.14,30.13,23,7,0,0.00
2013-7-18,57,56,52,-100,-100,-100,0,0,100,30.12,30.07,12,11,0,0.00
2013-7-19,77,73,67,-100,-100,-100,0,0,100,29.81,29.71,27,23,0,0.00
2013-7-20,77,76,74,-100,-100,-100,0,0,100,29.86,29.84,28,23,0,0.00
2013-7-21,74,67,63,-100,-100,-100,0,0,100,30.06,29.86,28,15,0,0.00
2013-7-22,65,22,65,-100,-100,-100,0,0,100,29.78,29.64,27,18,0,0.00
2013-7-23,58,54,51,-100,-100,-100,0,0,100,30.05,29.72,35,22,0,0.00
2013-7-24,61,55,46,-100,-100,-100,0,0,100,30.06,30.03,12,9,0,0.00
2013-7-25,69,64,61,-100,-100,-100,0,0,100,30.15,30.11,21,16,0,0.00
2013-7-26,71,70,69,-100,-100,-100,0,0,100,30.15,30.12,13,9,0,0.00
2013-7-28,66,65,64,-100,-100,-100,0,0,100,29.87,29.85,40,39,0,0.00
2013-7-29,60,58,54,-100,-100,-100,0,0,100,30.15,29.95,46,24,0,0.00
2013-7-30,62,57,51,-100,-100,-100,0,0,100,30.16,30.05,16,12,0,0.00
2013-7-31,59,57,54,-100,-100,-100,0,0,100,30.00,29.90,17,12,0,0.00
2013-8-1,64,64,64,-100,-100,-100,0,0,100,29.92,29.92,17,17,0,0.00
2013-8-2,71,68,65,-100,-100,-100,0,0,100,29.95,29.91,31,23,0,0.00
2013-8-3,72,71,71,-100,-100,-100,0,0,100,30.01,29.91,29,-201,0,0.00
2013-8-4,70,64,58,-100,-100,-100,0,0,100,30.14,30.06,32,21,0,0.00
2013-8-5,62,59,54,-100,-100,-100,0,0,100,30.09,29.91,23,14,0,0.00
2013-8-7,60,57,52,-100,-100,-100,0,0,100,29.94,29.76,21,12,0,0.00
2013-8-8,56,56,56,-100,-100,-100,0,0,100,30.03,30.03,10,10,0,0.00
2013-8-10,73,72,70,-100,-100,-100,0,0,100,30.13,30.06,14,-492,0,0.00
2013-8-11,71,66,63,-100,-100,-100,0,0,100,30.15,30.07,14,-45,0,0.00
2013-8-12,61,58,53,-100,-100,-100,0,0,100,30.30,29.97,25,-72,0,0.00
2013-8-14,54,51,49,-100,-100,-100,0,0,100,30.20,30.17,17,-177,0,0.00
2013-8-15,69,51,58,-100,-100,-100,0,0,100,30.90,30.12,24,20,0,0.00
2013-8-17,75,73,70,-100,-100,-100,0,0,100,30.28,30.25,15,12,0,0.00
2013-8-18,67,67,67,-100,-100,-100,0,0,100,30.19,30.19,9,9,0,0.00
2013-8-19,73,61,60,-100,-100,-100,0,0,100,30.00,29.90,25,22,0,0.00
2013-8-20,68,67,66,-100,-100,-100,0,0,100,29.91,29.89,9,8,0,0.00
2013-8-21,68,46,62,-100,-100,-100,0,0,100,29.86,29.85,28,25,0,0.00
2013-8-22,78,74,70,-100,-100,-100,0,0,100,30.06,29.94,25,20,0,0.00
2013-8-23,73,73,73,-100,-100,-100,0,0,100,30.05,30.05,11,11,0,0.00
2013-8-25,69,69,69,-100,-100,-100,0,0,100,30.00,29.99,31,30,0,0.00
2013-8-26,70,69,68,-100,-100,-100,0,0,100,29.91,29.89,86,58,0,0.00
2013-8-29,63,62,62,-100,-100,-100,0,0,100,30.05,30.05,9,8,0,0.00
2013-8-30,78,74,71,-100,-100,-100,0,0,100,29.87,29.81,34,25,0,0.00
2013-8-31,73,72,70,-100,-100,-100,0,0,100,29.86,28.86,20,16,0,0.00
2013-9-1,69,68,67,-100,-100,-100,0,0,100,29.87,29.79,22,14,0,0.00
2013-9-2,64,55,50,-100,-100,-100,0,0,100,30.02,29.74,52,32,0,0.00
2013-9-3,68,65,57,-100,-100,-100,0,0,100,30.04,29.87,32,23,0,0.00
2013-9-4,61,55,52,-100,-100,-100,0,0,100,30.11,29.81,32,22,0,0.00
2013-9-5,68,62,54,-100,-100,-100,0,0,100,30.35,30.20,25,13,0,0.00
2013-9-6,68,68,68,-100,-100,-100,0,0,100,30.27,30.27,17,17,0,0.00
2013-9-7,75,68,68,-100,-100,-100,0,0,100,30.01,29.94,34,21,0,0.00
2013-9-8,66,63,60,-100,-100,-100,0,0,100,30.11,30.01,44,25,0,0.00
2013-9-9,64,62,58,-100,-100,-100,0,0,100,30.05,29.71,24,13,0,0.00
2013-9-11,64,62,59,-100,-100,-100,0,0,100,29.97,29.92,21,11,0,0.00
2013-9-12,62,60,59,-100,-100,-100,0,0,100,29.99,29.91,40,32,0,0.00
2013-9-13,59,56,55,-100,-100,-100,0,0,100,30.10,30.05,28,25,0,0.00
2013-9-14,60,58,54,-100,-100,-100,0,0,100,30.17,30.10,17,11,0,0.00
2013-9-15,61,57,51,-100,-100,-100,0,0,100,30.14,30.04,34,20,0,0.00
2013-9-16,55,50,45,-100,-100,-100,0,0,100,30.47,30.33,17,10,0,0.00
2013-9-17,62,58,54,-100,-100,-100,0,0,100,30.32,30.04,26,17,0,0.00
2013-9-18,56,55,55,-100,-100,-100,0,0,100,30.04,30.01,29,23,0,0.00
2013-9-19,72,68,65,-100,-100,-100,0,0,100,29.99,29.82,41,28,0,0.00
2013-9-20,73,69,65,-100,-100,-100,0,0,100,29.97,29.79,34,28,0,0.00
2013-9-21,63,56,51,-100,-100,-100,0,0,100,29.97,29.77,39,31,0,0.00
2013-9-22,52,48,44,-100,-100,-100,0,0,100,30.13,29.96,26,16,0,0.00
2013-9-23,59,54,52,-100,-100,-100,0,0,100,30.05,29.99,29,19,0,0.00
2013-9-24,59,55,53,-100,-100,-100,0,0,100,30.10,30.01,21,14,0,0.00
2013-9-25,59,58,57,-100,-100,-100,0,0,100,30.06,30.06,6,6,0,0.00
2013-9-26,62,62,61,-100,-100,-100,0,0,100,30.05,30.05,18,14,0,0.00
2013-9-27,65,65,65,-100,-100,-100,0,0,100,30.27,30.06,20,19,0,0.00
2013-9-28,67,64,62,-100,-100,-100,0,0,100,30.24,30.12,24,19,0,0.00
2013-9-29,58,55,54,-100,-100,-100,0,0,100,29.98,29.86,31,23,0,0.00
2013-9-30,59,59,59,-100,-100,-100,0,0,100,29.67,29.67,18,18,0,0.00
2013-10-1,59,59,59,-100,-100,-100,0,0,100,29.67,29.67,18,18,0,0.00
2013-10-2,65,62,59,-100,-100,-100,0,0,100,30.10,30.00,21,15,0,0.00
2013-10-3,67,66,65,-100,-100,-100,0,0,100,30.08,30.07,17,14,0,0.00
2013-10-4,69,67,62,-100,-100,-100,0,0,100,30.04,30.02,24,22,0,0.00
2013-10-5,59,53,50,-100,-100,-100,0,0,100,30.11,29.92,40,33,0,0.00
2013-10-6,51,49,46,-100,-100,-100,0,0,100,29.92,29.69,38,25,0,0.00
2013-10-7,51,49,47,-100,-100,-100,0,0,100,29.93,29.75,34,28,0,0.00
2013-10-8,63,58,53,-100,-100,-100,0,0,100,30.30,30.25,28,24,0,0.00
2013-10-9,65,63,62,-100,-100,-100,0,0,100,30.36,30.29,23,20,0,0.00
2013-10-10,60,57,56,-100,-100,-100,0,0,100,30.27,30.26,16,12,0,0.00
2013-10-11,56,56,56,-100,-100,-100,0,0,100,30.07,30.07,26,26,0,0.00
2013-10-12,60,55,50,-100,-100,-100,0,0,100,30.07,29.76,32,24,0,0.00
2013-10-13,50,50,50,-100,-100,-100,0,0,100,30.42,30.06,20,18,0,0.00
2013-10-14,52,50,48,-100,-100,-100,0,0,100,30.46,30.37,10,6,0,0.00
2013-10-15,56,56,56,-100,-100,-100,0,0,100,30.00,30.00,25,25,0,0.00
2013-10-16,62,61,60,-100,-100,-100,0,0,100,29.84,29.80,34,29,0,0.00
2013-10-17,58,58,58,-100,-100,-100,0,0,100,29.94,29.94,23,22,0,0.00
2013-10-18,58,57,54,-100,-100,-100,0,0,100,29.88,29.85,28,23,0,0.00
2013-10-19,46,45,45,-100,-100,-100,0,0,100,29.75,29.70,15,11,0,0.00
2013-10-20,42,42,42,-100,-100,-100,0,0,100,29.76,29.76,10,10,0,0.00
2013-10-21,35,34,34,-100,-100,-100,0,0,100,29.77,29.76,34,31,0,0.00
2013-10-22,39,39,38,-100,-100,-100,0,0,100,29.60,29.54,30,24,0,0.00
2013-10-24,43,43,43,-100,-100,-100,0,0,100,30.02,30.02,30,25,0,0.00
2013-10-25,47,46,45,-100,-100,-100,0,0,100,30.30,30.12,38,33,0,0.00
2013-10-26,46,44,40,-100,-100,-100,0,0,100,30.19,29.85,37,35,0,0.00
2013-10-27,48,47,45,-100,-100,-100,0,0,100,30.07,29.95,41,31,0,0.00
2013-10-28,51,51,51,-100,-100,-100,0,0,100,30.28,30.27,8,7,0,0.00
2013-10-30,42,40,39,-100,-100,-100,0,0,100,30.19,29.90,17,16,0,0.00
2013-11-4,34,33,32,-100,-100,-100,0,0,100,30.57,30.55,17,14,0,0.00
2013-11-5,53,53,53,-100,-100,-100,0,0,100,30.30,30.30,17,17,0,0.00
2013-11-6,39,39,39,-100,-100,-100,0,0,100,29.75,29.75,37,37,0,0.00
2013-11-7,36,36,36,-100,-100,-100,0,0,100,30.17,30.02,31,16,0,0.00
2013-11-8,37,36,34,-100,-100,-100,0,0,100,30.15,30.11,11,9,0,0.00
2013-11-9,45,43,39,-100,-100,-100,0,0,100,29.86,29.77,44,40,0,0.00
2013-11-10,44,44,44,-100,-100,-100,0,0,100,30.13,30.13,22,22,0,0.00
2013-11-11,44,43,42,-100,-100,-100,0,0,100,30.27,30.12,34,26,0,0.00
2013-11-12,30,30,29,-100,-100,-100,0,0,100,30.48,30.46,34,32,0,0.00
2013-11-13,43,38,28,-100,-100,-100,0,0,100,30.41,29.74,50,35,0,0.00
2013-11-14,42,42,41,-100,-100,-100,0,0,100,29.76,29.75,32,26,0,0.00
2013-11-15,42,34,40,-100,-100,-100,0,0,100,29.83,29.80,21,18,0,0.00
2013-11-16,49,44,41,-100,-100,-100,0,0,100,29.82,29.75,38,31,0,0.00
2013-11-17,54,52,51,-100,-100,-100,0,0,100,29.77,29.42,46,37,0,0.00
2013-11-18,48,36,37,-100,-100,-100,0,0,100,30.14,29.82,48,41,0,0.00
2013-11-19,38,38,37,-100,-100,-100,0,0,100,30.43,30.41,11,10,0,0.00
2013-11-20,42,42,42,-100,-100,-100,0,0,100,30.32,30.29,36,33,0,0.00
2013-11-21,42,42,42,-100,-100,-100,0,0,100,30.25,30.25,18,18,0,0.00
2013-11-22,25,21,19,-100,-100,-100,0,0,100,30.47,30.35,44,18,0,0.00
2013-11-23,11,6,4,-100,-100,-100,0,0,100,30.72,30.56,34,32,0,0.00
2013-11-25,38,29,23,-100,-100,-100,0,0,100,30.10,29.85,41,28,0,0.00
2013-11-26,38,24,18,-100,-100,-100,0,0,100,30.16,29.90,40,34,0,0.00
2013-11-27,25,18,15,-100,-100,-100,0,0,100,30.19,30.13,29,28,0,0.00
2013-11-28,29,29,29,-100,-100,-100,0,0,100,30.20,30.20,16,16,0,0.00
2013-11-30,30,20,30,-100,-100,-100,0,0,100,30.15,30.07,6,4,0,0.00
2013-12-2,32,32,32,-100,-100,-100,0,0,100,29.97,29.97,38,18,0,0.00
2013-12-3,31,29,26,-100,-100,-100,0,0,100,30.00,29.97,38,34,0,0.00
2013-12-4,43,35,28,-100,-100,-100,0,0,100,30.00,29.87,40,32,0,0.00
2013-12-7,21,18,17,-100,-100,-100,0,0,100,30.55,30.49,38,29,0,0.00
2013-12-8,19,17,16,-100,-100,-100,0,0,100,30.50,30.13,34,22,0,0.00
2013-12-9,21,20,18,-100,-100,-100,0,0,100,29.95,29.95,26,23,0,0.00
2013-12-12,12,10,6,-100,-100,-100,0,0,100,30.18,30.14,40,27,0,0.00
2013-12-13,8,3,-3,-100,-100,-100,0,0,100,30.31,30.17,40,28,0,0.00
2013-12-14,26,18,6,-100,-100,-100,0,0,100,30.38,20.98,34,20,0,0.00
2013-12-15,28,22,15,-100,-100,-100,0,0,100,30.08,29.92,36,30,0,0.00
2013-12-16,18,16,15,-100,-100,-100,0,0,100,30.80,30.02,25,22,0,0.00
2013-12-17,25,19,12,-100,-100,-100,0,0,100,29.96,29.71,40,27,0,0.00
2013-12-18,12,8,8,-100,-100,-100,0,0,100,29.98,29.96,29,22,0,0.00
2013-12-20,24,22,19,-100,-100,-100,0,0,100,30.06,29.91,17,10,0,0.00
2013-12-21,29,22,17,-100,-100,-100,0,0,100,29.98,29.90,31,20,0,0.00
2013-12-22,35,31,27,-100,-100,-100,0,0,100,29.80,29.63,31,17,0,0.00
2013-12-23,30,24,13,-100,-100,-100,0,0,100,30.34,30.15,30,21,0,0.00
2013-12-24,8,6,3,-100,-100,-100,0,0,100,30.45,30.38,15,14,0,0.00
2013-12-25,20,18,16,-100,-100,-100,0,0,100,30.25,29.95,46,35,0,0.00
2013-12-26,17,13,5,-100,-100,-100,0,0,100,30.20,30.11,16,6,0,0.00
2013-12-27,23,20,17,-100,-100,-100,0,0,100,30.18,29.98,34,23,0,0.00
2013-12-28,41,35,31,-100,-100,-100,0,0,100,29.98,29.76,34,22,0,0.00
2013-12-29,41,28,11,-100,-100,-100,0,0,100,30.20,29.76,34,24,0,0.00
2013-12-30,13,10,5,-100,-100,-100,0,0,100,30.24,30.00,29,24,0,0.00
2013-12-31,10,6,2,-100,-100,-100,0,0,100,30.21,30.16,31,26,0,0.00
2014-1-1,3,2,1,-100,-100,-100,0,0,100,30.45,30.30,21,20,0,0.00
2014-1-2,-4,-9,-13,-100,-100,-100,0,0,100,30.43,30.36,2,1,0,0.00